Earlham, Iowa
Current Conditions -  °F | °C
As of 7:15 PM on Thursday 18 Dec 2014 (Local Time) from KPRO Reporting Station
Overcast Overcast  
Wind Chill: 24°   Ceiling: 3500
Heat Index: 29°   Visibility: 10mi
Dew Point: 25°   Wind: 5mph
Humidity: 86%   Direction: 130°SE
Pressure: 30.24"   Gusts: NA
Location:  41.49°N, 94.12°W
Report Text: KPRO 190115Z AUTO 13004KT 10SM SCT026 OVC035 M02/M04 A3024 RMK AO2 T10171037
Loading
Personal Weather Stations






























Interactive Weather Map New forecast layout! Learn more

10-Day Weather Forecast

Advertisements
Track Severe Weather on mobile